createdAt,value
2022-08-02T00:00:12.953Z,10.62
2022-08-02T00:01:12.986Z,10.63
2022-08-02T00:02:13.298Z,10.63
2022-08-02T00:03:12.931Z,10.66
2022-08-02T00:04:12.975Z,10.70
2022-08-02T00:05:12.911Z,10.71
2022-08-02T00:06:12.891Z,10.73
2022-08-02T00:07:12.881Z,10.71
2022-08-02T00:08:12.869Z,10.73
2022-08-02T00:09:12.873Z,10.70
2022-08-02T00:10:12.892Z,10.70
2022-08-02T00:11:12.843Z,10.76
2022-08-02T00:12:13.014Z,10.80
2022-08-02T00:13:12.822Z,10.80
2022-08-02T00:14:12.805Z,10.80
2022-08-02T00:15:15.973Z,10.80
2022-08-02T00:16:17.021Z,10.81
2022-08-02T00:17:12.783Z,10.81
2022-08-02T00:18:12.763Z,10.81
2022-08-02T00:19:12.765Z,10.81
2022-08-02T00:20:12.745Z,10.81
2022-08-02T00:21:12.738Z,10.80
2022-08-02T00:22:13.243Z,10.80
2022-08-02T00:23:12.725Z,10.80
2022-08-02T00:24:28.845Z,10.78
2022-08-02T00:25:13.695Z,10.74
2022-08-02T00:26:12.678Z,10.74
2022-08-02T00:27:12.685Z,10.74
2022-08-02T00:28:12.690Z,10.76
2022-08-02T00:29:12.648Z,10.76
2022-08-02T00:30:12.637Z,10.77
2022-08-02T00:31:12.639Z,10.78
2022-08-02T00:32:13.026Z,10.81
2022-08-02T00:33:12.609Z,10.80
2022-08-02T00:34:29.120Z,10.78
2022-08-02T00:35:13.600Z,10.77
2022-08-02T00:36:12.578Z,10.78
2022-08-02T00:37:12.571Z,10.78
2022-08-02T00:38:12.559Z,10.80
2022-08-02T00:39:33.827Z,10.80
2022-08-02T00:40:13.575Z,10.80
2022-08-02T00:41:13.914Z,10.77
2022-08-02T00:42:13.501Z,10.73
2022-08-02T00:43:13.320Z,10.71
2022-08-02T00:44:13.377Z,10.71
2022-08-02T00:45:13.875Z,10.74
2022-08-02T00:46:14.148Z,10.73
2022-08-02T00:47:19.642Z,10.70
2022-08-02T00:48:14.145Z,10.71
2022-08-02T00:49:13.154Z,10.70
2022-08-02T00:50:12.961Z,10.66
2022-08-02T00:51:13.250Z,10.65
2022-08-02T00:52:12.829Z,10.60
2022-08-02T00:53:12.403Z,10.60
2022-08-02T00:54:12.383Z,10.59
2022-08-02T00:55:12.384Z,10.56
2022-08-02T00:56:13.374Z,10.56
2022-08-02T00:57:12.356Z,10.56
2022-08-02T00:58:12.383Z,10.59
2022-08-02T00:59:12.345Z,10.60
2022-08-02T01:00:12.325Z,10.62
2022-08-02T01:01:12.426Z,10.60
2022-08-02T01:02:12.553Z,10.60
2022-08-02T01:03:12.304Z,10.59
2022-08-02T01:04:12.323Z,10.56
2022-08-02T01:05:12.276Z,10.56
2022-08-02T01:06:12.284Z,10.51
2022-08-02T01:07:13.924Z,10.43
2022-08-02T01:08:12.247Z,10.40
2022-08-02T01:09:12.238Z,10.39
2022-08-02T01:10:12.267Z,10.36
2022-08-02T01:11:12.217Z,10.36
2022-08-02T01:12:12.573Z,10.36
2022-08-02T01:13:12.188Z,10.34
2022-08-02T01:14:12.179Z,10.34
2022-08-02T01:15:12.182Z,10.32
2022-08-02T01:16:12.211Z,10.33
2022-08-02T01:17:12.154Z,10.34
2022-08-02T01:18:12.141Z,10.36
2022-08-02T01:19:14.713Z,10.39
2022-08-02T01:20:12.119Z,10.39
2022-08-02T01:21:12.119Z,10.37
2022-08-02T01:22:12.459Z,10.39
2022-08-02T01:23:12.093Z,10.37
2022-08-02T01:24:12.091Z,10.37
2022-08-02T01:25:12.071Z,10.42
2022-08-02T01:26:12.060Z,10.40
2022-08-02T01:27:12.053Z,10.42
2022-08-02T01:28:12.072Z,10.40
2022-08-02T01:29:12.033Z,10.39
2022-08-02T01:30:12.023Z,10.36
2022-08-02T01:31:12.015Z,10.33
2022-08-02T01:32:12.335Z,10.33
2022-08-02T01:33:11.984Z,10.32
2022-08-02T01:34:12.013Z,10.30
2022-08-02T01:35:11.971Z,10.30
2022-08-02T01:36:11.954Z,10.32
2022-08-02T01:37:11.954Z,10.30
2022-08-02T01:38:11.934Z,10.28
2022-08-02T01:39:11.935Z,10.28
2022-08-02T01:40:12.955Z,10.26
2022-08-02T01:41:11.904Z,10.25
2022-08-02T01:42:12.297Z,10.26
2022-08-02T01:43:12.327Z,10.25
2022-08-02T01:44:11.877Z,10.24
2022-08-02T01:45:11.867Z,10.22
2022-08-02T01:46:11.887Z,10.22
2022-08-02T01:47:11.836Z,10.21
2022-08-02T01:48:11.826Z,10.24
2022-08-02T01:49:11.843Z,10.22
2022-08-02T01:50:11.807Z,10.25
2022-08-02T01:51:11.808Z,10.24
2022-08-02T01:52:12.743Z,10.24
2022-08-02T01:53:11.780Z,10.22
2022-08-02T01:54:11.768Z,10.21
2022-08-02T01:55:18.829Z,10.19
2022-08-02T01:56:12.749Z,10.21
2022-08-02T01:57:11.739Z,10.21
2022-08-02T01:58:11.759Z,10.21
2022-08-02T01:59:11.721Z,10.21
2022-08-02T02:00:11.749Z,10.19
2022-08-02T02:01:14.429Z,10.18
2022-08-02T02:02:13.174Z,10.18
2022-08-02T02:03:11.681Z,10.17
2022-08-02T02:04:11.693Z,10.15
2022-08-02T02:05:12.312Z,10.15
2022-08-02T02:06:11.641Z,10.14
2022-08-02T02:07:11.591Z,10.17
2022-08-02T02:08:11.622Z,10.14
2022-08-02T02:09:11.611Z,10.09
2022-08-02T02:10:12.468Z,10.09
2022-08-02T02:12:06.024Z,10.07
2022-08-02T02:12:14.291Z,10.06
2022-08-02T02:13:12.312Z,10.04
2022-08-02T02:14:12.373Z,10.01
2022-08-02T02:15:11.564Z,10.01
2022-08-02T02:16:11.572Z,10.03
2022-08-02T02:17:52.052Z,10.00
2022-08-02T02:18:13.839Z,9.97
2022-08-02T02:19:11.506Z,9.93
2022-08-02T02:20:11.445Z,9.89
2022-08-02T02:21:11.426Z,9.76
2022-08-02T02:22:11.699Z,9.66
2022-08-02T02:23:11.406Z,9.56
2022-08-02T02:24:11.721Z,9.40
2022-08-02T02:25:11.592Z,9.24
2022-08-02T02:26:11.377Z,9.18
2022-08-02T02:27:11.366Z,9.05
2022-08-02T02:28:11.386Z,8.96
2022-08-02T02:29:11.347Z,8.91
2022-08-02T02:30:11.338Z,8.90
2022-08-02T02:31:11.327Z,8.86
2022-08-02T02:32:11.875Z,8.81
2022-08-02T02:33:11.309Z,8.79
2022-08-02T02:34:11.328Z,8.83
2022-08-02T02:35:11.288Z,8.88
2022-08-02T02:36:11.300Z,8.94
2022-08-02T02:37:11.267Z,8.99
2022-08-02T02:38:11.250Z,9.02
2022-08-02T02:39:13.528Z,9.02
2022-08-02T02:40:11.268Z,9.02
2022-08-02T02:41:11.220Z,9.05
2022-08-02T02:42:11.500Z,9.12
2022-08-02T02:43:11.202Z,9.16
2022-08-02T02:44:11.191Z,9.18
2022-08-02T02:45:11.184Z,9.20
2022-08-02T02:46:11.210Z,9.23
2022-08-02T02:47:11.170Z,9.24
2022-08-02T02:48:11.142Z,9.25
2022-08-02T02:49:11.204Z,9.30
2022-08-02T02:50:11.123Z,9.31
2022-08-02T02:51:13.937Z,9.31
2022-08-02T02:52:11.274Z,9.32
2022-08-02T02:53:11.096Z,9.31
2022-08-02T02:54:33.347Z,9.32
2022-08-02T02:55:12.083Z,9.34
2022-08-02T02:56:11.057Z,9.34
2022-08-02T02:57:11.053Z,9.34
2022-08-02T02:58:11.094Z,9.32
2022-08-02T02:59:11.025Z,9.31
2022-08-02T03:00:11.027Z,9.28
2022-08-02T03:01:11.069Z,9.27
2022-08-02T03:02:11.271Z,9.30
2022-08-02T03:03:10.995Z,9.30
2022-08-02T03:04:11.014Z,9.24
2022-08-02T03:05:10.966Z,9.24
2022-08-02T03:06:15.683Z,9.25
2022-08-02T03:07:11.948Z,9.27
2022-08-02T03:08:10.941Z,9.27
2022-08-02T03:09:11.418Z,9.31
2022-08-02T03:10:10.950Z,9.34
2022-08-02T03:11:10.908Z,9.38
2022-08-02T03:12:11.176Z,9.39
2022-08-02T03:13:10.887Z,9.45
2022-08-02T03:14:10.881Z,9.52
2022-08-02T03:15:10.870Z,9.53
2022-08-02T03:16:10.901Z,9.57
2022-08-02T03:17:10.848Z,9.57
2022-08-02T03:18:10.837Z,9.57
2022-08-02T03:19:10.831Z,9.60
2022-08-02T03:20:10.819Z,9.60
2022-08-02T03:21:10.808Z,9.60
2022-08-02T03:22:11.112Z,9.61
2022-08-02T03:23:10.790Z,9.61
2022-08-02T03:24:10.771Z,9.64
2022-08-02T03:25:10.775Z,9.64
2022-08-02T03:26:10.759Z,9.67
2022-08-02T03:27:10.742Z,9.66
2022-08-02T03:28:10.773Z,9.66
2022-08-02T03:29:11.102Z,9.66
2022-08-02T03:30:10.712Z,9.64
2022-08-02T03:31:10.703Z,9.64
2022-08-02T03:32:11.029Z,9.64
2022-08-02T03:33:10.685Z,9.64
2022-08-02T03:34:10.705Z,9.67
2022-08-02T03:35:10.663Z,9.67
2022-08-02T03:36:10.654Z,9.70
2022-08-02T03:37:10.645Z,9.70
2022-08-02T03:38:10.634Z,9.70
2022-08-02T03:39:10.615Z,9.68
2022-08-02T03:40:10.655Z,9.71
2022-08-02T03:41:10.595Z,9.76
2022-08-02T03:42:10.802Z,9.76
2022-08-02T03:43:11.577Z,9.75
2022-08-02T03:44:10.575Z,9.71
2022-08-02T03:45:10.566Z,9.68
2022-08-02T03:46:10.584Z,9.68
2022-08-02T03:47:10.536Z,9.68
2022-08-02T03:48:31.786Z,9.67
2022-08-02T03:49:11.618Z,9.67
2022-08-02T03:50:10.517Z,9.64
2022-08-02T03:51:10.508Z,9.66
2022-08-02T03:52:10.779Z,9.66
2022-08-02T03:53:20.080Z,9.67
2022-08-02T03:54:11.481Z,9.68
2022-08-02T03:55:10.462Z,9.67
2022-08-02T03:56:10.449Z,9.66
2022-08-02T03:57:10.438Z,9.66
2022-08-02T03:58:11.521Z,9.64
2022-08-02T03:59:10.420Z,9.66
2022-08-02T04:00:10.407Z,9.67
2022-08-02T04:01:10.593Z,9.68
2022-08-02T04:02:10.643Z,9.70
2022-08-02T04:03:11.020Z,9.73
2022-08-02T04:04:10.399Z,9.75
2022-08-02T04:05:10.361Z,9.71
2022-08-02T04:06:10.341Z,9.75
2022-08-02T04:07:10.333Z,9.73
2022-08-02T04:08:36.301Z,9.73
2022-08-02T04:09:11.343Z,9.71
2022-08-02T04:10:10.312Z,9.73
2022-08-02T04:11:10.292Z,9.71
2022-08-02T04:12:10.576Z,9.70
2022-08-02T04:13:10.273Z,9.68
2022-08-02T04:14:11.354Z,9.70
2022-08-02T04:15:10.283Z,9.70
2022-08-02T04:16:10.244Z,9.70
2022-08-02T04:17:10.232Z,9.68
2022-08-02T04:18:10.224Z,9.68
2022-08-02T04:19:10.212Z,9.70
2022-08-02T04:20:11.235Z,9.73
2022-08-02T04:21:10.196Z,9.75
2022-08-02T04:22:10.503Z,9.76
2022-08-02T04:23:10.176Z,9.75
2022-08-02T04:24:10.965Z,9.75
2022-08-02T04:25:10.145Z,9.79
2022-08-02T04:26:11.166Z,9.82
2022-08-02T04:27:49.899Z,9.82
2022-08-02T04:28:17.044Z,9.82
2022-08-02T04:29:11.107Z,9.81
2022-08-02T04:30:10.187Z,9.82
2022-08-02T04:31:10.087Z,9.82
2022-08-02T04:32:10.440Z,9.81
2022-08-02T04:33:10.068Z,9.81
2022-08-02T04:34:14.744Z,9.78
2022-08-02T04:35:19.121Z,9.81
2022-08-02T04:36:11.039Z,9.82
2022-08-02T04:37:10.020Z,9.86
2022-08-02T04:38:10.702Z,9.89
2022-08-02T04:39:10.012Z,9.93
2022-08-02T04:40:10.011Z,9.97
2022-08-02T04:41:09.981Z,9.97
2022-08-02T04:42:10.244Z,9.97
2022-08-02T04:43:09.964Z,9.97
2022-08-02T04:44:09.991Z,10.03
2022-08-02T04:45:09.941Z,10.06
2022-08-02T04:46:10.939Z,10.12
2022-08-02T04:47:09.923Z,10.15
2022-08-02T04:48:09.912Z,10.17
2022-08-02T04:49:09.959Z,10.17
2022-08-02T04:50:09.934Z,10.17
2022-08-02T04:51:09.882Z,10.17
2022-08-02T04:52:10.061Z,10.14
2022-08-02T04:53:09.858Z,10.17
2022-08-02T04:54:10.396Z,10.21
2022-08-02T04:55:09.842Z,10.30
2022-08-02T04:56:09.874Z,10.47
2022-08-02T04:57:09.814Z,10.66
2022-08-02T04:58:30.155Z,10.84
2022-08-02T04:59:10.794Z,11.14
2022-08-02T05:00:09.785Z,11.56
2022-08-02T05:01:09.823Z,11.94
2022-08-02T05:02:09.991Z,12.06
2022-08-02T05:03:09.755Z,12.12
2022-08-02T05:04:09.746Z,12.12
2022-08-02T05:05:10.357Z,12.04
2022-08-02T05:06:19.550Z,11.93
2022-08-02T05:07:10.748Z,11.78
2022-08-02T05:08:09.706Z,11.67
2022-08-02T05:09:09.697Z,11.62
2022-08-02T05:10:09.688Z,11.56
2022-08-02T05:11:09.676Z,11.53
2022-08-02T05:12:09.904Z,11.50
2022-08-02T05:13:09.689Z,11.47
2022-08-02T05:14:09.639Z,11.47
2022-08-02T05:15:12.719Z,11.50
2022-08-02T05:16:09.619Z,11.49
2022-08-02T05:17:09.612Z,11.52
2022-08-02T05:18:09.610Z,11.65
2022-08-02T05:19:09.694Z,11.96
2022-08-02T05:20:09.580Z,12.52
2022-08-02T05:21:09.572Z,13.17
2022-08-02T05:22:09.775Z,13.69
2022-08-02T05:23:09.551Z,13.74
2022-08-02T05:24:09.576Z,13.87
2022-08-02T05:25:09.571Z,13.99
2022-08-02T05:26:09.523Z,13.92
2022-08-02T05:27:16.902Z,13.96
2022-08-02T05:28:11.801Z,14.17
2022-08-02T05:29:09.566Z,14.31
2022-08-02T05:30:09.477Z,14.17
2022-08-02T05:31:12.556Z,14.19
2022-08-02T05:32:09.722Z,14.27
2022-08-02T05:33:09.444Z,14.27
2022-08-02T05:34:11.977Z,14.29
2022-08-02T05:35:09.427Z,14.27
2022-08-02T05:36:09.723Z,14.32
2022-08-02T05:37:09.962Z,14.34
2022-08-02T05:38:10.173Z,14.28
2022-08-02T05:39:10.811Z,14.24
2022-08-02T05:40:12.962Z,14.16
2022-08-02T05:41:09.370Z,14.09
2022-08-02T05:42:09.622Z,13.99
2022-08-02T05:43:09.379Z,13.87
2022-08-02T05:44:09.341Z,13.80
2022-08-02T05:45:09.330Z,13.67
2022-08-02T05:46:09.322Z,13.58
2022-08-02T05:47:09.348Z,13.49
2022-08-02T05:48:09.300Z,13.46
2022-08-02T05:49:09.378Z,13.47
2022-08-02T05:50:09.280Z,13.51
2022-08-02T05:51:09.262Z,13.54
2022-08-02T05:52:09.574Z,13.52
2022-08-02T05:53:09.251Z,13.52
2022-08-02T05:54:09.231Z,13.54
2022-08-02T05:55:09.880Z,13.51
2022-08-02T05:56:09.220Z,13.47
2022-08-02T05:57:09.205Z,13.47
2022-08-02T05:58:09.267Z,13.44
2022-08-02T05:59:09.183Z,13.43
2022-08-02T06:00:09.176Z,13.40
2022-08-02T06:01:09.194Z,13.29
2022-08-02T06:02:09.613Z,13.29
2022-08-02T06:03:09.141Z,13.15
2022-08-02T06:04:09.166Z,13.11
2022-08-02T06:05:09.126Z,13.03
2022-08-02T06:06:09.115Z,13.32
2022-08-02T06:07:09.138Z,13.67
2022-08-02T06:08:09.226Z,13.96
2022-08-02T06:09:09.087Z,14.09
2022-08-02T06:10:09.069Z,14.24
2022-08-02T06:11:09.064Z,14.32
2022-08-02T06:12:09.057Z,14.47
2022-08-02T06:13:09.068Z,14.61
2022-08-02T06:14:09.036Z,14.69
2022-08-02T06:15:09.018Z,14.65
2022-08-02T06:16:14.028Z,14.88
2022-08-02T06:17:10.000Z,14.99
2022-08-02T06:18:08.999Z,15.02
2022-08-02T06:19:09.025Z,15.06
2022-08-02T06:20:08.970Z,15.21
2022-08-02T06:22:30.622Z,15.30
2022-08-02T06:22:33.028Z,15.01
2022-08-02T06:23:13.683Z,14.88
2022-08-02T06:24:08.932Z,14.94
2022-08-02T06:25:11.634Z,14.88
2022-08-02T06:26:09.911Z,14.83
2022-08-02T06:27:08.892Z,14.91
2022-08-02T06:28:11.376Z,14.93
2022-08-02T06:29:08.873Z,15.06
2022-08-02T06:30:08.981Z,15.27
2022-08-02T06:31:08.884Z,15.33
2022-08-02T06:32:09.323Z,15.36
2022-08-02T06:33:08.836Z,15.48
2022-08-02T06:34:08.824Z,15.68
2022-08-02T06:35:08.815Z,15.88
2022-08-02T06:36:08.807Z,15.96
2022-08-02T06:37:08.818Z,16.06
2022-08-02T06:38:08.787Z,16.23
2022-08-02T06:39:08.767Z,16.30
2022-08-02T06:40:08.770Z,16.30
2022-08-02T06:41:09.125Z,16.26
2022-08-02T06:42:08.988Z,16.30
2022-08-02T06:43:08.791Z,16.27
2022-08-02T06:44:40.730Z,16.33
2022-08-02T06:45:09.718Z,16.41
2022-08-02T06:46:55.932Z,16.55
2022-08-02T06:47:13.046Z,16.71
2022-08-02T06:48:08.680Z,16.80
2022-08-02T06:49:08.761Z,16.89
2022-08-02T06:50:08.660Z,17.03
2022-08-02T06:51:08.642Z,17.14
2022-08-02T06:52:08.936Z,17.17
2022-08-02T06:53:08.621Z,17.06
2022-08-02T06:54:08.620Z,17.10
2022-08-02T06:55:08.647Z,17.11
2022-08-02T06:56:09.182Z,17.00
2022-08-02T06:57:08.592Z,17.07
2022-08-02T06:58:08.583Z,17.23
2022-08-02T06:59:08.676Z,17.35
2022-08-02T07:00:08.556Z,17.30
2022-08-02T07:01:08.601Z,17.28
2022-08-02T07:02:08.669Z,17.25
2022-08-02T07:03:08.526Z,17.25
2022-08-02T07:04:08.515Z,17.20
2022-08-02T07:05:08.496Z,17.30
2022-08-02T07:06:08.496Z,17.40
2022-08-02T07:07:08.515Z,17.53
2022-08-02T07:08:08.467Z,17.44
2022-08-02T07:09:20.623Z,17.40
2022-08-02T07:10:09.450Z,17.43
2022-08-02T07:11:09.226Z,17.57
2022-08-02T07:12:08.877Z,17.69
2022-08-02T07:13:08.898Z,17.85
2022-08-02T07:14:08.409Z,17.99
2022-08-02T07:15:08.402Z,17.97
2022-08-02T07:16:08.392Z,17.84
2022-08-02T07:17:08.379Z,17.73
2022-08-02T07:18:08.380Z,17.62
2022-08-02T07:19:09.391Z,17.53
2022-08-02T07:20:08.403Z,17.76
2022-08-02T07:21:08.700Z,17.84
2022-08-02T07:22:08.323Z,17.94
2022-08-02T07:23:08.390Z,18.03
2022-08-02T07:24:08.319Z,18.21
2022-08-02T07:25:08.453Z,18.10
2022-08-02T07:26:09.205Z,17.91
2022-08-02T07:27:11.550Z,17.84
2022-08-02T07:28:11.941Z,17.87
2022-08-02T07:29:09.262Z,17.97
2022-08-02T07:30:08.246Z,18.09
2022-08-02T07:31:08.607Z,18.02
2022-08-02T07:32:08.367Z,18.06
2022-08-02T07:33:08.225Z,18.21
2022-08-02T07:34:09.197Z,18.37
2022-08-02T07:35:08.192Z,18.59
2022-08-02T07:36:08.804Z,18.82
2022-08-02T07:37:09.033Z,18.98
2022-08-02T07:38:08.168Z,19.21
2022-08-02T07:39:08.833Z,19.40
2022-08-02T07:40:12.628Z,19.61
2022-08-02T07:41:09.130Z,19.79
2022-08-02T07:42:08.240Z,19.80
2022-08-02T07:43:08.142Z,19.94
2022-08-02T07:44:08.099Z,20.12
2022-08-02T07:45:08.081Z,20.16
2022-08-02T07:46:08.084Z,19.87
2022-08-02T07:47:08.091Z,19.86
2022-08-02T07:48:08.071Z,19.88
2022-08-02T07:49:08.106Z,20.06
2022-08-02T07:50:08.037Z,20.27
2022-08-02T07:51:08.043Z,20.31
2022-08-02T07:52:08.042Z,20.49
2022-08-02T07:53:08.005Z,20.71
2022-08-02T07:54:07.993Z,20.84
2022-08-02T07:55:08.017Z,20.90
2022-08-02T07:56:07.966Z,20.86
2022-08-02T07:57:07.968Z,20.83
2022-08-02T07:58:12.233Z,20.58
2022-08-02T07:59:07.946Z,20.54
2022-08-02T08:00:07.927Z,20.71
2022-08-02T08:01:07.976Z,20.90
2022-08-02T08:02:07.912Z,21.06
2022-08-02T08:03:07.910Z,21.14
2022-08-02T08:04:07.879Z,21.05
2022-08-02T08:05:07.881Z,20.69
2022-08-02T08:06:07.869Z,20.46
2022-08-02T08:07:07.917Z,20.53
2022-08-02T08:08:07.839Z,20.58
2022-08-02T08:09:07.831Z,20.61
2022-08-02T08:10:07.830Z,20.77
2022-08-02T08:11:07.811Z,20.96
2022-08-02T08:12:07.804Z,20.98
2022-08-02T08:13:07.830Z,21.01
2022-08-02T08:14:07.782Z,20.99
2022-08-02T08:15:07.775Z,21.08
2022-08-02T08:16:07.755Z,21.11
2022-08-02T08:17:07.753Z,21.21
2022-08-02T08:18:07.756Z,21.24
2022-08-02T08:19:07.778Z,21.01
2022-08-02T08:20:07.715Z,20.95
2022-08-02T08:21:07.714Z,20.83
2022-08-02T08:22:07.696Z,20.83
2022-08-02T08:23:07.686Z,20.81
2022-08-02T08:24:07.676Z,20.86
2022-08-02T08:25:07.698Z,20.89
2022-08-02T08:26:07.656Z,20.93
2022-08-02T08:27:07.650Z,20.91
2022-08-02T08:28:07.636Z,20.91
2022-08-02T08:29:07.626Z,20.56
2022-08-02T08:30:07.613Z,20.21
2022-08-02T08:31:07.652Z,20.18
2022-08-02T08:32:07.591Z,20.33
2022-08-02T08:33:07.581Z,20.35
2022-08-02T08:34:07.570Z,20.41
2022-08-02T08:35:07.561Z,20.58
2022-08-02T08:36:07.550Z,20.68
2022-08-02T08:37:07.593Z,20.80
2022-08-02T08:38:08.058Z,21.02
2022-08-02T08:39:07.524Z,21.26
2022-08-02T08:40:07.514Z,21.46
2022-08-02T08:41:08.307Z,21.61
2022-08-02T08:42:07.494Z,21.72
2022-08-02T08:43:07.514Z,21.66
2022-08-02T08:44:07.467Z,21.72
2022-08-02T08:45:07.466Z,21.79
2022-08-02T08:46:07.447Z,21.92
2022-08-02T08:47:07.447Z,21.99
2022-08-02T08:48:07.428Z,22.13
2022-08-02T08:49:07.568Z,22.12
2022-08-02T08:50:07.419Z,21.95
2022-08-02T08:51:07.399Z,21.83
2022-08-02T08:52:07.390Z,21.99
2022-08-02T08:53:07.382Z,22.14
2022-08-02T08:54:07.370Z,22.34
2022-08-02T08:55:07.405Z,22.49
2022-08-02T08:56:07.350Z,22.62
2022-08-02T08:57:07.348Z,22.68
2022-08-02T08:58:07.336Z,22.59
2022-08-02T08:59:07.321Z,22.57
2022-08-02T09:00:07.310Z,22.47
2022-08-02T09:01:07.365Z,22.44
2022-08-02T09:02:16.848Z,22.34
2022-08-02T09:03:08.276Z,22.23
2022-08-02T09:04:07.267Z,22.17
2022-08-02T09:05:07.254Z,22.09
2022-08-02T09:06:07.344Z,21.90
2022-08-02T09:07:07.266Z,21.64
2022-08-02T09:08:07.225Z,21.54
2022-08-02T09:09:07.218Z,21.35
2022-08-02T09:10:07.201Z,21.21
2022-08-02T09:11:07.199Z,21.13
2022-08-02T09:12:07.179Z,21.01
2022-08-02T09:13:43.544Z,20.93
2022-08-02T09:14:08.159Z,20.87
2022-08-02T09:15:07.157Z,20.74
2022-08-02T09:16:11.706Z,20.62
2022-08-02T09:17:08.131Z,20.51
2022-08-02T09:18:07.119Z,20.38
2022-08-02T09:19:07.740Z,20.25
2022-08-02T09:20:07.111Z,20.20
2022-08-02T09:21:07.094Z,20.06
2022-08-02T09:22:07.083Z,20.00
2022-08-02T09:23:07.070Z,19.87
2022-08-02T09:24:07.063Z,19.68
2022-08-02T09:25:07.084Z,19.68
2022-08-02T09:26:07.727Z,19.69
2022-08-02T09:27:07.034Z,19.60
2022-08-02T09:28:07.034Z,19.60
2022-08-02T09:29:07.015Z,19.65
2022-08-02T09:30:12.091Z,19.70
2022-08-02T09:31:08.024Z,19.72
2022-08-02T09:32:06.978Z,19.73
2022-08-02T09:33:06.978Z,19.72
2022-08-02T09:34:06.958Z,19.78
2022-08-02T09:35:06.946Z,19.86
2022-08-02T09:36:08.333Z,19.87
2022-08-02T09:37:06.977Z,19.88
2022-08-02T09:38:06.919Z,19.88
2022-08-02T09:39:06.909Z,19.93
2022-08-02T09:40:06.890Z,19.97
2022-08-02T09:41:06.896Z,20.02
2022-08-02T09:42:06.871Z,19.91
2022-08-02T09:43:06.911Z,19.91
2022-08-02T09:44:07.286Z,20.00
2022-08-02T09:45:06.843Z,19.95
2022-08-02T09:46:06.834Z,19.91
2022-08-02T09:47:06.822Z,20.02
2022-08-02T09:48:06.813Z,20.13
2022-08-02T09:49:06.893Z,20.10
2022-08-02T09:50:06.787Z,20.20
2022-08-02T09:51:06.775Z,20.24
2022-08-02T09:52:06.774Z,20.24
2022-08-02T09:53:06.761Z,20.28
2022-08-02T09:54:08.760Z,20.34
2022-08-02T09:55:06.785Z,20.39
2022-08-02T09:56:06.726Z,20.35
2022-08-02T09:57:07.715Z,20.27
2022-08-02T09:58:06.727Z,20.30
2022-08-02T09:59:06.697Z,20.31
2022-08-02T10:00:06.686Z,20.39
2022-08-02T10:01:07.752Z,20.51
2022-08-02T10:02:06.734Z,20.66
2022-08-02T10:03:07.660Z,20.71
2022-08-02T10:04:06.638Z,20.65
2022-08-02T10:05:06.629Z,20.72
2022-08-02T10:06:06.620Z,20.72
2022-08-02T10:07:06.649Z,20.79
2022-08-02T10:08:06.600Z,20.81
2022-08-02T10:09:06.592Z,20.84
2022-08-02T10:10:06.572Z,20.87
2022-08-02T10:11:06.572Z,20.96
2022-08-02T10:12:06.561Z,21.04
2022-08-02T10:13:06.593Z,21.08
2022-08-02T10:14:07.344Z,21.06
2022-08-02T10:15:06.532Z,20.90
2022-08-02T10:16:06.516Z,20.95
2022-08-02T10:17:06.510Z,20.98
2022-08-02T10:18:17.640Z,21.04
2022-08-02T10:19:07.564Z,21.09
2022-08-02T10:20:06.479Z,21.09
2022-08-02T10:21:06.466Z,21.17
2022-08-02T10:22:06.453Z,21.16
2022-08-02T10:23:06.448Z,21.09
2022-08-02T10:24:06.427Z,21.16
2022-08-02T10:25:06.483Z,21.16
2022-08-02T10:26:06.408Z,20.99
2022-08-02T10:27:06.399Z,20.87
2022-08-02T10:28:06.388Z,21.04
2022-08-02T10:29:06.378Z,21.35
2022-08-02T10:30:06.370Z,21.57
2022-08-02T10:31:06.391Z,21.56
2022-08-02T10:32:06.350Z,21.34
2022-08-02T10:33:06.342Z,21.11
2022-08-02T10:34:06.328Z,21.01
2022-08-02T10:35:19.421Z,20.99
2022-08-02T10:36:07.910Z,21.01
2022-08-02T10:37:06.314Z,20.87
2022-08-02T10:38:06.282Z,20.89
2022-08-02T10:39:06.282Z,21.04
2022-08-02T10:40:06.267Z,21.16
2022-08-02T10:41:06.254Z,21.14
2022-08-02T10:42:06.304Z,21.17
2022-08-02T10:43:06.234Z,21.36
2022-08-02T10:44:06.226Z,21.48
2022-08-02T10:45:07.215Z,21.44
2022-08-02T10:46:06.208Z,21.32
2022-08-02T10:47:06.196Z,21.30
2022-08-02T10:48:07.215Z,21.32
2022-08-02T10:49:23.633Z,21.29
2022-08-02T10:50:07.188Z,21.46
2022-08-02T10:51:06.149Z,21.81
2022-08-02T10:52:06.159Z,21.71
2022-08-02T10:53:06.142Z,21.69
2022-08-02T10:54:06.149Z,21.61
2022-08-02T10:55:13.374Z,21.53
2022-08-02T10:56:09.259Z,21.72
2022-08-02T10:57:06.101Z,21.71
2022-08-02T10:58:06.089Z,21.67
2022-08-02T10:59:06.071Z,21.64
2022-08-02T11:00:06.102Z,21.35
2022-08-02T11:01:06.149Z,21.35
2022-08-02T11:02:06.042Z,21.76
2022-08-02T11:03:06.034Z,22.27
2022-08-02T11:04:10.107Z,22.37
2022-08-02T11:05:06.034Z,22.57
2022-08-02T11:06:06.046Z,22.67
2022-08-02T11:07:05.995Z,22.64
2022-08-02T11:08:05.985Z,22.47
2022-08-02T11:09:05.965Z,22.31
2022-08-02T11:10:05.964Z,22.22
2022-08-02T11:11:05.967Z,22.34
2022-08-02T11:12:05.977Z,22.46
2022-08-02T11:13:05.935Z,22.74
2022-08-02T11:14:05.919Z,22.78
2022-08-02T11:15:07.712Z,22.83
2022-08-02T11:16:11.365Z,22.86
2022-08-02T11:17:06.931Z,23.02
2022-08-02T11:18:05.879Z,23.22
2022-08-02T11:19:06.841Z,23.34
2022-08-02T11:20:05.859Z,23.39
2022-08-02T11:21:05.850Z,23.31
2022-08-02T11:22:05.843Z,23.46
2022-08-02T11:23:05.861Z,23.50
2022-08-02T11:24:05.814Z,23.45
2022-08-02T11:25:05.816Z,23.46
2022-08-02T11:26:10.938Z,23.50
2022-08-02T11:27:06.793Z,23.67
2022-08-02T11:28:05.775Z,23.86
2022-08-02T11:29:05.794Z,23.97
2022-08-02T11:30:05.756Z,24.02
2022-08-02T11:31:05.747Z,23.98
2022-08-02T11:32:05.736Z,23.80
2022-08-02T11:33:05.725Z,23.58
2022-08-02T11:34:09.574Z,23.52
2022-08-02T11:35:05.738Z,23.24
2022-08-02T11:36:05.687Z,23.15
2022-08-02T11:37:05.687Z,23.20
2022-08-02T11:38:05.676Z,23.32
2022-08-02T11:39:05.669Z,23.52
2022-08-02T11:40:08.018Z,23.58
2022-08-02T11:41:09.942Z,23.43
2022-08-02T11:42:05.632Z,23.47
2022-08-02T11:43:05.621Z,23.71
2022-08-02T11:44:05.611Z,24.12
2022-08-02T11:45:05.609Z,24.32
2022-08-02T11:46:05.595Z,24.57
2022-08-02T11:47:05.633Z,24.73
2022-08-02T11:48:05.573Z,24.83
2022-08-02T11:49:05.598Z,24.94
2022-08-02T11:50:05.557Z,25.05
2022-08-02T11:51:05.542Z,25.20
2022-08-02T11:52:05.682Z,25.30
2022-08-02T11:53:05.564Z,25.13
2022-08-02T11:54:05.507Z,25.27
2022-08-02T11:55:05.506Z,25.32
2022-08-02T11:56:05.487Z,25.38
2022-08-02T11:57:05.477Z,25.52
2022-08-02T11:58:06.234Z,25.30
2022-08-02T11:59:05.491Z,25.22
2022-08-02T12:00:05.440Z,25.25
2022-08-02T12:01:05.450Z,25.43
2022-08-02T12:02:05.421Z,25.43
2022-08-02T12:03:05.463Z,25.52
2022-08-02T12:04:05.412Z,25.43
2022-08-02T12:05:05.433Z,25.24
2022-08-02T12:06:06.939Z,25.01
2022-08-02T12:07:06.377Z,25.06
2022-08-02T12:08:05.367Z,25.19
2022-08-02T12:09:05.352Z,25.31
2022-08-02T12:10:06.401Z,25.30
2022-08-02T12:11:05.335Z,25.06
2022-08-02T12:12:05.324Z,24.83
2022-08-02T12:13:05.315Z,24.67
2022-08-02T12:14:05.327Z,24.41
2022-08-02T12:15:05.296Z,24.42
2022-08-02T12:16:08.703Z,24.50
2022-08-02T12:17:05.269Z,24.60
2022-08-02T12:18:05.268Z,24.52
2022-08-02T12:19:05.246Z,24.53
2022-08-02T12:20:05.292Z,24.57
2022-08-02T12:21:05.230Z,24.34
2022-08-02T12:22:05.258Z,24.05
2022-08-02T12:23:05.209Z,24.07
2022-08-02T12:24:05.200Z,23.98
2022-08-02T12:25:05.268Z,23.89
2022-08-02T12:26:05.184Z,23.98
2022-08-02T12:27:05.172Z,24.10
2022-08-02T12:28:05.215Z,24.14
2022-08-02T12:29:05.150Z,24.16
2022-08-02T12:30:05.183Z,24.26
2022-08-02T12:31:05.125Z,24.22
2022-08-02T12:32:05.124Z,24.32
2022-08-02T12:33:05.104Z,24.47
2022-08-02T12:34:06.143Z,24.38
2022-08-02T12:35:05.085Z,24.14
2022-08-02T12:36:05.089Z,23.98
2022-08-02T12:37:05.079Z,24.04
2022-08-02T12:38:05.056Z,24.22
2022-08-02T12:39:05.047Z,24.26
2022-08-02T12:40:05.158Z,24.39
2022-08-02T12:41:05.026Z,24.42
2022-08-02T12:42:06.021Z,24.49
2022-08-02T12:43:05.296Z,24.53
2022-08-02T12:44:05.000Z,24.56
2022-08-02T12:45:04.981Z,24.47
2022-08-02T12:46:05.011Z,24.41
2022-08-02T12:47:04.970Z,24.35
2022-08-02T12:48:04.961Z,24.26
2022-08-02T12:49:20.309Z,24.13
2022-08-02T12:50:06.070Z,24.01
2022-08-02T12:51:04.922Z,24.05
2022-08-02T12:52:06.891Z,24.24
2022-08-02T12:53:04.903Z,24.37
2022-08-02T12:54:04.896Z,24.13
2022-08-02T12:55:04.885Z,23.92
2022-08-02T12:56:04.874Z,23.83
2022-08-02T12:57:04.887Z,23.76